Time;durP1;ratioP1;P1;durP2;ratioP2;P2;SDS_P1;SDS_P2;PMS_P1;PMS_P2;Temp;Humidity;BMP_temperature;BMP_pressure;BME280_temperature;BME280_humidity;BME280_pressure;Samples;Min_cycle;Max_cycle;Signal;HPM_P1;HPM_P2
2023/10/28 00:01:14;;;;;;;11.48;5.85;;;;;;;10.21;100.00;99629.25;7393145;19;20383;-71
2023/10/28 00:03:43;;;;;;;10.70;5.72;;;;;;;10.23;100.00;99629.03;7394915;19;19951;-71
2023/10/28 00:06:12;;;;;;;10.85;5.88;;;;;;;10.24;100.00;99633.38;7389801;19;19922;-72
2023/10/28 00:08:40;;;;;;;8.35;4.78;;;;;;;10.21;100.00;99621.19;7391585;19;19926;-71
2023/10/28 00:11:11;;;;;;;9.32;5.50;;;;;;;10.19;100.00;99634.00;7394228;19;19919;-71
2023/10/28 00:13:41;;;;;;;10.25;5.55;;;;;;;10.18;100.00;99626.16;7395362;19;19937;-71
2023/10/28 00:16:09;;;;;;;9.70;5.03;;;;;;;10.19;100.00;99630.47;7392852;19;19918;-71
2023/10/28 00:18:39;;;;;;;8.68;5.43;;;;;;;10.18;100.00;99621.56;7380329;19;19929;-71
2023/10/28 00:21:09;;;;;;;9.88;5.95;;;;;;;10.19;100.00;99627.78;7380427;19;19977;-71
2023/10/28 00:23:38;;;;;;;9.57;5.00;;;;;;;10.17;100.00;99625.31;7389834;19;19923;-71
2023/10/28 00:26:09;;;;;;;9.98;5.70;;;;;;;10.18;100.00;99620.78;7385216;19;20365;-71
2023/10/28 00:28:41;;;;;;;10.38;5.28;;;;;;;10.17;100.00;99617.25;7390652;19;19915;-71
2023/10/28 00:31:10;;;;;;;;;;;;;;;10.04;100.00;99614.50;7393073;19;19930;-72
2023/10/28 00:33:39;;;;;;;9.20;5.25;;;;;;;10.13;100.00;99617.81;7389155;19;19950;-72
2023/10/28 00:36:11;;;;;;;9.43;5.60;;;;;;;10.15;100.00;99615.75;7392118;19;19969;-71
2023/10/28 00:38:39;;;;;;;;;;;;;;;10.03;100.00;99613.66;7391410;19;19925;-71
2023/10/28 00:41:08;;;;;;;10.55;5.50;;;;;;;10.12;100.00;99621.53;7390202;19;19922;-71
2023/10/28 00:43:36;;;;;;;9.77;5.68;;;;;;;10.10;100.00;99608.28;7391928;19;19935;-72
2023/10/28 00:46:08;;;;;;;11.73;6.30;;;;;;;10.13;100.00;99615.13;7392135;19;19926;-71
2023/10/28 00:48:37;;;;;;;8.55;5.68;;;;;;;10.12;100.00;99611.63;7392761;19;19926;-71
2023/10/28 00:51:06;;;;;;;9.73;6.60;;;;;;;10.14;100.00;99619.50;7389260;19;19933;-71
2023/10/28 00:53:35;;;;;;;8.63;5.07;;;;;;;10.15;100.00;99615.75;7390480;19;19926;-71
2023/10/28 00:56:04;;;;;;;9.63;5.93;;;;;;;10.16;100.00;99606.69;7389986;19;20349;-71
2023/10/28 00:58:33;;;;;;;10.68;6.22;;;;;;;10.16;100.00;99617.44;7390688;19;19922;-71
2023/10/28 01:01:01;;;;;;;11.40;5.93;;;;;;;10.17;100.00;99621.81;7388244;19;19959;-71
2023/10/28 01:03:33;;;;;;;10.65;6.00;;;;;;;10.18;100.00;99620.78;7392794;19;19914;-71
2023/10/28 01:06:02;;;;;;;11.48;6.05;;;;;;;10.18;100.00;99620.78;7393443;19;19922;-70
2023/10/28 01:08:31;;;;;;;10.73;5.95;;;;;;;10.16;100.00;99620.13;7391472;19;19923;-71
2023/10/28 01:11:03;;;;;;;11.95;7.43;;;;;;;10.17;100.00;99621.81;7393460;19;19959;-71
2023/10/28 01:13:31;;;;;;;13.52;6.75;;;;;;;10.16;100.00;99617.44;7390783;19;20324;-71
2023/10/28 01:16:01;;;;;;;9.60;5.72;;;;;;;10.16;100.00;99618.28;7394229;19;19927;-71
2023/10/28 01:18:32;;;;;;;11.43;5.97;;;;;;;10.18;100.00;99620.78;7393415;19;19937;-71
2023/10/28 01:21:02;;;;;;;11.85;5.93;;;;;;;10.19;100.00;99619.72;7390844;19;20300;-71
2023/10/28 01:23:33;;;;;;;12.45;6.65;;;;;;;10.20;100.00;99622.22;7390712;19;19929;-71
2023/10/28 01:26:02;;;;;;;12.57;6.00;;;;;;;10.20;100.00;99616.81;7392059;19;19947;-71
2023/10/28 01:28:32;;;;;;;13.18;6.72;;;;;;;10.20;100.00;99616.00;7390603;19;19923;-72
2023/10/28 01:31:01;;;;;;;12.20;6.65;;;;;;;10.21;100.00;99614.97;7394579;19;19927;-73
2023/10/28 01:33:30;;;;;;;11.93;6.80;;;;;;;10.22;100.00;99619.31;7390917;19;20412;-71
2023/10/28 01:35:58;;;;;;;11.60;6.63;;;;;;;10.20;100.00;99624.06;7391321;19;19922;-71
2023/10/28 01:38:27;;;;;;;10.00;5.97;;;;;;;10.18;100.00;99613.50;7390571;19;19958;-71
2023/10/28 01:40:59;;;;;;;10.98;5.72;;;;;;;10.18;100.00;99616.19;7394261;19;19918;-70
2023/10/28 01:43:27;;;;;;;12.13;6.20;;;;;;;10.18;100.00;99618.88;7392701;19;19918;-71
2023/10/28 01:45:56;;;;;;;13.85;7.60;;;;;;;10.18;100.00;99615.38;7393556;19;20386;-71
2023/10/28 01:48:24;;;;;;;15.43;6.80;;;;;;;10.18;100.00;99612.69;7391565;19;19926;-71
2023/10/28 01:50:54;;;;;;;11.10;6.93;;;;;;;10.18;100.00;99620.78;7391857;19;19919;-71
2023/10/28 01:53:24;;;;;;;12.98;7.22;;;;;;;10.18;100.00;99615.38;7390243;19;19947;-71
2023/10/28 01:55:53;;;;;;;11.57;6.38;;;;;;;10.18;100.00;99618.88;7391547;19;19929;-71
2023/10/28 01:58:24;;;;;;;14.60;6.90;;;;;;;10.18;100.00;99616.19;7392352;19;19915;-71
2023/10/28 02:00:53;;;;;;;12.13;7.35;;;;;;;10.18;100.00;99618.88;7392731;19;19927;-73
2023/10/28 02:03:21;;;;;;;14.40;7.45;;;;;;;10.17;100.00;99619.09;7392562;19;19947;-71
2023/10/28 02:05:50;;;;;;;15.95;7.47;;;;;;;10.18;100.00;99618.09;7391002;19;19953;-71
2023/10/28 02:08:18;;;;;;;12.27;6.22;;;;;;;10.17;100.00;99613.72;7392049;19;20333;-70
2023/10/28 02:10:47;;;;;;;13.63;7.35;;;;;;;10.19;100.00;99619.72;7387316;19;19914;-71
2023/10/28 02:13:15;;;;;;;13.65;7.22;;;;;;;10.18;100.00;99618.88;7393045;19;19962;-71
2023/10/28 02:15:50;;;;;;;13.55;7.53;;;;;;;10.17;100.00;99613.72;7390980;19;19922;-71
2023/10/28 02:18:19;;;;;;;16.05;8.63;;;;;;;10.17;100.00;99613.72;7391215;19;19915;-71
2023/10/28 02:20:48;;;;;;;17.20;9.27;;;;;;;10.17;100.00;99609.19;7390268;19;19934;-71
2023/10/28 02:23:16;;;;;;;16.90;8.23;;;;;;;10.18;100.00;99613.50;7392073;19;19919;-71
2023/10/28 02:25:45;;;;;;;17.40;9.30;;;;;;;10.20;100.00;99607.91;7391831;19;19943;-71
2023/10/28 02:28:11;;;;;;;14.45;8.15;;;;;;;10.20;100.00;99608.75;7391293;19;20293;-71
2023/10/28 02:30:40;;;;;;;18.02;8.68;;;;;;;10.20;100.00;99607.91;7386951;19;19922;-71
2023/10/28 02:33:12;;;;;;;21.58;9.57;;;;;;;10.19;100.00;99612.47;7395993;19;19939;-71
2023/10/28 02:35:41;;;;;;;;;;;;;;;10.08;100.00;99607.69;7397003;19;19923;-71
2023/10/28 02:38:10;;;;;;;14.95;8.65;;;;;;;10.17;100.00;99611.03;7394031;19;19943;-71
2023/10/28 02:40:39;;;;;;;16.63;8.90;;;;;;;10.18;100.00;99605.44;7398073;19;20425;-71
2023/10/28 02:43:07;;;;;;;16.23;8.68;;;;;;;10.20;100.00;99607.91;7396603;19;19926;-71
2023/10/28 02:45:36;;;;;;;17.17;8.93;;;;;;;10.21;100.00;99609.59;7397339;19;19922;-71
2023/10/28 02:48:05;;;;;;;18.38;8.90;;;;;;;10.22;100.00;99605.88;7398629;19;20524;-72
2023/10/28 02:50:37;;;;;;;18.00;9.05;;;;;;;10.22;100.00;99611.25;7393568;19;20379;-71
2023/10/28 02:53:06;;;;;;;17.88;8.88;;;;;;;10.20;100.00;99611.44;7398681;19;19933;-71
2023/10/28 02:55:37;;;;;;;20.17;10.38;;;;;;;10.21;100.00;99614.97;7397091;19;19927;-71
2023/10/28 02:58:06;;;;;;;20.50;9.88;;;;;;;10.21;100.00;99613.09;7397637;19;20357;-71
2023/10/28 03:00:34;;;;;;;19.25;10.40;;;;;;;10.21;100.00;99612.28;7396872;19;19923;-71
2023/10/28 03:03:05;;;;;;;20.67;10.20;;;;;;;10.21;100.00;99615.81;7390794;19;19965;-71
2023/10/28 03:05:36;;;;;;;25.42;11.02;;;;;;;10.23;100.00;99610.19;7397615;19;20349;-71
2023/10/28 03:08:04;;;;;;;20.88;10.85;;;;;;;10.22;100.00;99616.63;7394726;19;19927;-71
2023/10/28 03:10:33;;;;;;;23.25;11.18;;;;;;;10.21;100.00;99613.09;7394679;19;19926;-71
2023/10/28 03:13:01;;;;;;;25.13;11.27;;;;;;;10.23;100.00;99619.09;7396640;19;20310;-71
2023/10/28 03:15:32;;;;;;;22.33;10.80;;;;;;;10.23;100.00;99624.47;7395165;19;20023;-71
2023/10/28 03:18:00;;;;;;;23.85;11.40;;;;;;;10.22;100.00;99622.84;7394845;19;19971;-70
2023/10/28 03:20:29;;;;;;;22.35;10.50;;;;;;;10.22;100.00;99619.31;7393370;19;20005;-70
2023/10/28 03:23:00;;;;;;;23.50;11.05;;;;;;;10.21;100.00;99623.03;7395078;19;19915;-70
2023/10/28 03:25:28;;;;;;;22.73;10.75;;;;;;;10.19;100.00;99617.84;7396919;19;19933;-70
2023/10/28 03:27:57;;;;;;;25.13;11.35;;;;;;;10.19;100.00;99625.09;7394942;19;20360;-70
2023/10/28 03:30:25;;;;;;;22.85;11.20;;;;;;;10.17;100.00;99619.94;7394771;19;19926;-70
2023/10/28 03:32:54;;;;;;;21.02;11.13;;;;;;;10.18;100.00;99612.69;7394217;19;20357;-71
2023/10/28 03:35:23;;;;;;;22.92;10.68;;;;;;;10.20;100.00;99619.53;7397945;19;20373;-70
2023/10/28 03:37:52;;;;;;;20.42;10.77;;;;;;;10.18;100.00;99615.38;7395204;19;19923;-70
2023/10/28 03:40:24;;;;;;;21.55;10.73;;;;;;;10.15;100.00;99619.31;7395443;19;19919;-70
2023/10/28 03:42:52;;;;;;;19.92;10.70;;;;;;;10.13;100.00;99612.44;7396213;19;19922;-70
2023/10/28 03:45:21;;;;;;;24.80;12.30;;;;;;;10.12;100.00;99608.09;7391493;19;20064;-70
2023/10/28 03:47:49;;;;;;;21.50;11.75;;;;;;;10.13;100.00;99615.13;7393788;19;19926;-70
2023/10/28 03:50:18;;;;;;;21.30;11.32;;;;;;;10.12;100.00;99617.00;7395016;19;19953;-70
2023/10/28 03:52:47;;;;;;;25.13;11.10;;;;;;;10.11;100.00;99615.34;7396228;19;19927;-70
2023/10/28 03:55:15;;;;;;;20.38;10.65;;;;;;;10.09;100.00;99621.97;7394686;19;19961;-70
2023/10/28 03:57:47;;;;;;;23.20;10.07;;;;;;;10.07;100.00;99621.31;7395719;19;20341;-70
2023/10/28 04:00:16;;;;;;;19.35;9.00;;;;;;;10.06;100.00;99617.81;7393117;19;20304;-70
2023/10/28 04:02:45;;;;;;;21.63;10.63;;;;;;;10.06;100.00;99627.72;7394145;19;19929;-70
2023/10/28 04:05:13;;;;;;;19.73;10.13;;;;;;;10.06;100.00;99625.03;7395582;19;19922;-69
2023/10/28 04:07:42;;;;;;;19.40;10.23;;;;;;;10.07;100.00;99634.78;7394145;19;20356;-70
2023/10/28 04:10:11;;;;;;;21.00;10.65;;;;;;;10.06;100.00;99625.03;7394359;19;19918;-71
2023/10/28 04:12:39;;;;;;;20.50;11.80;;;;;;;10.03;100.00;99619.06;7393955;19;20292;-70
2023/10/28 04:15:13;;;;;;;23.02;11.50;;;;;;;10.05;100.00;99620.72;7394703;19;19922;-70
2023/10/28 04:17:45;;;;;;;23.90;10.40;;;;;;;10.06;100.00;99616.97;7392689;19;20447;-70
2023/10/28 04:20:13;;;;;;;21.85;10.35;;;;;;;10.05;100.00;99621.56;7395883;19;20431;-70
2023/10/28 04:22:43;;;;;;;22.05;10.35;;;;;;;10.03;100.00;99624.44;7391964;19;19923;-70
2023/10/28 04:25:12;;;;;;;21.65;10.65;;;;;;;10.03;100.00;99624.44;7395411;19;19915;-70
2023/10/28 04:27:40;;;;;;;20.85;10.43;;;;;;;10.03;100.00;99619.06;7394252;19;19926;-70
2023/10/28 04:30:13;;;;;;;22.65;10.52;;;;;;;10.03;100.00;99627.13;7395566;19;19930;-70
2023/10/28 04:32:42;;;;;;;22.02;11.32;;;;;;;10.01;100.00;99626.47;7394187;19;19923;-70
2023/10/28 04:35:12;;;;;;;18.80;10.05;;;;;;;10.00;100.00;99624.00;7394083;19;19926;-70
2023/10/28 04:37:40;;;;;;;23.83;11.10;;;;;;;9.99;100.00;99625.88;7391939;19;19926;-70
2023/10/28 04:40:11;;;;;;;19.67;10.40;;;;;;;9.98;100.00;99618.81;7390041;19;20459;-70
2023/10/28 04:42:40;;;;;;;20.05;10.60;;;;;;;9.97;100.00;99614.47;7389140;19;19930;-70
2023/10/28 04:45:12;;;;;;;16.45;9.45;;;;;;;9.97;100.00;99614.47;7393023;19;19927;-70
2023/10/28 04:47:41;;;;;;;22.65;10.75;;;;;;;9.99;100.00;99612.41;7395359;19;19996;-70
2023/10/28 04:50:10;;;;;;;23.27;10.10;;;;;;;10.01;100.00;99612.19;7392141;19;19918;-70
2023/10/28 04:52:40;;;;;;;18.65;10.25;;;;;;;10.02;100.00;99606.63;7394850;19;19956;-70
2023/10/28 04:55:10;;;;;;;16.58;10.45;;;;;;;10.05;100.00;99602.72;7393400;19;19929;-69
2023/10/28 04:57:40;;;;;;;21.85;10.40;;;;;;;10.07;100.00;99597.09;7394621;19;19914;-70
2023/10/28 05:00:13;;;;;;;20.80;10.65;;;;;;;10.08;100.00;99599.59;7393390;19;19929;-70
2023/10/28 05:02:42;;;;;;;19.58;10.40;;;;;;;10.09;100.00;99600.44;7395168;19;20379;-71
2023/10/28 05:05:11;;;;;;;24.67;9.32;;;;;;;10.11;100.00;99599.19;7390634;19;20355;-70
2023/10/28 05:07:39;;;;;;;20.33;10.02;;;;;;;10.09;100.00;99603.13;7392677;19;19949;-70
2023/10/28 05:10:09;;;;;;;20.80;10.07;;;;;;;10.07;100.00;99610.56;7393338;19;19931;-70
2023/10/28 05:12:38;;;;;;;18.00;9.52;;;;;;;10.05;100.00;99605.41;7392579;19;19915;-70
2023/10/28 05:15:09;;;;;;;20.77;9.75;;;;;;;10.06;100.00;99611.59;7392926;19;19922;-69
2023/10/28 05:17:40;;;;;;;19.02;8.43;;;;;;;10.05;100.00;99616.16;7394863;19;19918;-69
2023/10/28 05:20:10;;;;;;;;;;;;;;;9.93;100.00;99613.22;7397400;19;19922;-70
2023/10/28 05:22:39;;;;;;;17.95;9.00;;;;;;;10.01;100.00;99621.09;7393079;19;19927;-71
2023/10/28 05:25:09;;;;;;;20.70;9.65;;;;;;;10.01;100.00;99614.88;7394203;19;19926;-70
2023/10/28 05:27:38;;;;;;;20.92;10.57;;;;;;;9.98;100.00;99616.13;7392510;19;19939;-71
2023/10/28 05:30:10;;;;;;;19.90;9.75;;;;;;;9.99;100.00;99625.03;7391392;19;19926;-70
2023/10/28 05:32:42;;;;;;;20.85;10.15;;;;;;;9.98;100.00;99618.81;7388954;19;20254;-71
2023/10/28 05:35:11;;;;;;;20.95;10.30;;;;;;;9.99;100.00;99623.19;7388164;19;19974;-69
2023/10/28 05:37:39;;;;;;;19.92;10.40;;;;;;;10.00;100.00;99624.00;7392217;19;19925;-70
2023/10/28 05:40:13;;;;;;;22.20;10.38;;;;;;;9.99;100.00;99616.97;7392223;19;19941;-70
2023/10/28 05:42:42;;;;;;;19.42;9.25;;;;;;;9.99;100.00;99620.50;7390616;19;19915;-70
2023/10/28 05:45:14;;;;;;;22.05;10.23;;;;;;;9.97;100.00;99629.78;7392060;19;20275;-70
2023/10/28 05:47:46;;;;;;;22.50;10.25;;;;;;;9.94;100.00;99628.34;7393263;19;19939;-70
2023/10/28 05:50:15;;;;;;;18.08;9.88;;;;;;;9.92;100.00;99625.00;7391192;19;19922;-69
2023/10/28 05:52:43;;;;;;;24.88;10.18;;;;;;;9.92;100.00;99632.28;7391832;19;19947;-70
2023/10/28 05:55:12;;;;;;;30.50;10.43;;;;;;;9.92;100.00;99630.38;7391861;19;19922;-70
2023/10/28 05:57:41;;;;;;;20.45;9.23;;;;;;;9.89;100.00;99633.50;7391198;19;20002;-70
2023/10/28 06:00:12;;;;;;;18.55;9.48;;;;;;;9.86;100.00;99636.59;7391755;19;19947;-70
2023/10/28 06:02:42;;;;;;;19.38;8.10;;;;;;;9.83;100.00;99633.50;7393687;19;20269;-69
2023/10/28 06:05:14;;;;;;;19.80;9.27;;;;;;;9.82;100.00;99629.97;7390953;19;20012;-70
2023/10/28 06:07:47;;;;;;;;;;;;;;;9.74;100.00;99640.91;7397413;19;19946;-70
2023/10/28 06:10:16;;;;;;;19.75;9.60;;;;;;;9.81;100.00;99641.75;7397531;19;19918;-70
2023/10/28 06:12:44;;;;;;;20.67;9.80;;;;;;;9.81;100.00;99649.00;7398737;19;19939;-70
2023/10/28 06:15:14;;;;;;;21.63;8.93;;;;;;;9.80;100.00;99648.16;7397603;19;19919;-70
2023/10/28 06:17:42;;;;;;;23.80;9.93;;;;;;;9.80;100.00;99652.69;7396752;19;19932;-70
2023/10/28 06:20:14;;;;;;;20.80;9.60;;;;;;;9.78;100.00;99647.53;7395556;19;19957;-70
2023/10/28 06:22:43;;;;;;;23.70;10.73;;;;;;;9.79;100.00;99649.22;7395901;19;19930;-70
2023/10/28 06:25:11;;;;;;;21.30;9.80;;;;;;;9.82;100.00;99650.66;7397137;19;19952;-70
2023/10/28 06:27:40;;;;;;;20.55;8.98;;;;;;;9.84;100.00;99662.03;7393092;19;19955;-70
2023/10/28 06:30:11;;;;;;;27.13;10.52;;;;;;;9.85;100.00;99667.22;7396090;19;19922;-70
2023/10/28 06:32:40;;;;;;;23.15;10.93;;;;;;;9.86;100.00;99668.88;7397890;19;19930;-70
2023/10/28 06:35:10;;;;;;;24.90;9.63;;;;;;;9.87;100.00;99667.03;7397785;19;19915;-70
2023/10/28 06:37:41;;;;;;;23.98;10.50;;;;;;;9.89;100.00;99665.78;7395508;19;19986;-71
2023/10/28 06:40:12;;;;;;;22.70;9.68;;;;;;;9.89;100.00;99673.00;7395520;19;20316;-70
2023/10/28 06:42:40;;;;;;;24.58;9.80;;;;;;;9.90;100.00;99672.81;7398041;19;19918;-70
2023/10/28 06:45:10;;;;;;;19.25;8.63;;;;;;;9.93;100.00;99668.88;7396428;19;19919;-70
2023/10/28 06:47:39;;;;;;;23.73;9.65;;;;;;;9.93;100.00;99672.41;7393738;19;19954;-70
2023/10/28 06:50:09;;;;;;;20.52;8.95;;;;;;;9.96;100.00;99672.03;7395829;19;19939;-69
2023/10/28 06:52:39;;;;;;;17.77;8.73;;;;;;;9.99;100.00;99674.31;7399632;19;19942;-71
2023/10/28 06:55:12;;;;;;;19.88;8.93;;;;;;;9.99;100.00;99671.63;7391764;19;19922;-70
2023/10/28 06:57:41;;;;;;;21.83;8.65;;;;;;;10.02;100.00;99678.44;7394965;19;19943;-69
2023/10/28 07:00:13;;;;;;;16.05;8.15;;;;;;;10.05;100.00;99672.66;7396320;19;20290;-70
2023/10/28 07:02:41;;;;;;;17.95;8.35;;;;;;;10.09;100.00;99683.84;7396529;19;19930;-70
2023/10/28 07:05:11;;;;;;;19.75;7.88;;;;;;;10.11;100.00;99684.47;7396251;19;19943;-70
2023/10/28 07:07:40;;;;;;;13.80;7.60;;;;;;;10.12;100.00;99688.81;7396142;19;19922;-70
2023/10/28 07:10:14;;;;;;;13.45;7.03;;;;;;;10.13;100.00;99691.31;7398141;19;19918;-69
2023/10/28 07:12:42;;;;;;;15.68;7.57;;;;;;;10.15;100.00;99688.41;7396045;19;19922;-70
2023/10/28 07:15:12;;;;;;;11.30;6.82;;;;;;;10.16;100.00;99692.78;7393989;19;19931;-70
2023/10/28 07:17:43;;;;;;;16.05;6.75;;;;;;;10.19;100.00;99687.81;7395716;19;19943;-70
2023/10/28 07:20:12;;;;;;;15.02;7.28;;;;;;;10.20;100.00;99697.56;7393274;19;19937;-70
2023/10/28 07:22:41;;;;;;;13.05;5.82;;;;;;;10.20;100.00;99694.03;7396220;19;19927;-70
2023/10/28 07:25:13;;;;;;;14.13;6.63;;;;;;;10.21;100.00;99698.41;7392826;19;20404;-70
2023/10/28 07:27:42;;;;;;;10.45;6.78;;;;;;;10.22;100.00;99702.75;7396556;19;20376;-70
2023/10/28 07:30:13;;;;;;;14.25;5.93;;;;;;;10.21;100.00;99701.94;7396136;19;19933;-70
2023/10/28 07:32:42;;;;;;;11.32;6.75;;;;;;;10.22;100.00;99702.75;7394117;19;20368;-70
2023/10/28 07:35:12;;;;;;;11.52;6.13;;;;;;;10.25;100.00;99711.25;7394379;19;19933;-70
2023/10/28 07:37:40;;;;;;;11.50;5.75;;;;;;;10.26;100.00;99717.47;7392693;19;19937;-70
2023/10/28 07:40:13;;;;;;;10.98;5.60;;;;;;;10.28;100.00;99718.09;7394640;19;19923;-69
2023/10/28 07:42:43;;;;;;;12.13;5.35;;;;;;;10.29;100.00;99725.13;7394936;19;19951;-70
2023/10/28 07:45:13;;;;;;;8.38;4.88;;;;;;;10.31;100.00;99721.19;7389876;19;19922;-70
2023/10/28 07:47:42;;;;;;;6.80;4.82;;;;;;;10.31;100.00;99723.88;7393785;19;19930;-70
2023/10/28 07:50:11;;;;;;;10.88;4.47;;;;;;;10.33;100.00;99724.53;7395020;19;19926;-70
2023/10/28 07:52:40;;;;;;;9.90;5.13;;;;;;;10.36;100.00;99737.56;7395864;19;19918;-70
2023/10/28 07:55:09;;;;;;;9.85;4.53;;;;;;;10.38;100.00;99734.69;7392632;19;19951;-70
2023/10/28 07:57:40;;;;;;;6.43;3.92;;;;;;;10.35;100.00;99730.53;7388072;19;19926;-70
2023/10/28 08:00:11;;;;;;;7.03;4.07;;;;;;;10.37;100.00;99743.78;7395680;19;19957;-71
2023/10/28 08:02:39;;;;;;;7.18;3.88;;;;;;;10.38;100.00;99745.44;7395232;19;19918;-71
2023/10/28 08:05:10;;;;;;;7.68;4.25;;;;;;;10.38;100.00;99740.06;7396620;19;19933;-70
2023/10/28 08:07:39;;;;;;;6.50;4.25;;;;;;;10.40;100.00;99737.97;7396555;19;19919;-70
2023/10/28 08:10:08;;;;;;;8.13;4.25;;;;;;;10.43;100.00;99740.28;7395806;19;19970;-70
2023/10/28 08:12:41;;;;;;;10.93;4.32;;;;;;;10.44;100.00;99736.56;7376322;19;19922;-71
2023/10/28 08:15:11;;;;;;;9.57;4.00;;;;;;;10.45;100.00;99736.34;7385411;19;19982;-70
2023/10/28 08:17:41;;;;;;;7.97;4.57;;;;;;;10.49;100.00;99742.16;7370228;19;19915;-70
2023/10/28 08:20:11;;;;;;;9.48;4.43;;;;;;;10.50;100.00;99740.28;7386820;19;19933;-70
2023/10/28 08:22:40;;;;;;;7.03;3.70;;;;;;;10.51;100.00;99740.09;7387753;19;19930;-69
2023/10/28 08:25:10;;;;;;;7.13;3.83;;;;;;;10.55;100.00;99746.72;7397164;19;19952;-69
2023/10/28 08:27:42;;;;;;;6.28;3.88;;;;;;;10.59;100.00;99742.59;7395172;19;19951;-70
2023/10/28 08:30:13;;;;;;;6.72;3.75;;;;;;;10.63;100.00;99743.84;7390307;19;19922;-70
2023/10/28 08:32:42;;;;;;;8.50;3.83;;;;;;;10.67;100.00;99750.47;7394397;19;19952;-70
2023/10/28 08:35:11;;;;;;;7.78;3.88;;;;;;;10.68;100.00;99749.44;7394948;19;19960;-70
2023/10/28 08:37:40;;;;;;;7.80;3.40;;;;;;;10.73;100.00;99749.66;7393846;19;20333;-71
2023/10/28 08:40:13;;;;;;;6.85;3.47;;;;;;;10.79;100.00;99754.22;7387410;19;20452;-71
2023/10/28 08:42:44;;;;;;;10.80;3.60;;;;;;;10.80;100.00;99752.34;7390938;19;19923;-71
2023/10/28 08:45:16;;;;;;;6.65;3.60;;;;;;;10.80;100.00;99750.50;7385163;19;19929;-71
2023/10/28 08:47:46;;;;;;;6.70;3.30;;;;;;;10.84;100.00;99749.03;7386847;19;20002;-70
2023/10/28 08:50:17;;;;;;;4.82;3.05;;;;;;;10.89;100.00;99748.44;7376910;19;19925;-71
2023/10/28 08:52:51;;;;;;;4.20;3.22;;;;;;;10.92;100.00;99748.84;7395584;19;19922;-71
2023/10/28 08:55:20;;;;;;;5.05;2.83;;;;;;;10.96;100.00;99746.56;7395910;19;19918;-71
2023/10/28 08:57:52;;;;;;;7.20;2.80;;;;;;;11.01;100.00;99746.78;7380781;19;19926;-71
2023/10/28 09:00:23;;;;;;;7.55;2.85;;;;;;;11.05;100.00;99748.00;7376823;19;19980;-71
2023/10/28 09:02:53;;;;;;;6.30;2.88;;;;;;;11.08;100.00;99747.63;7389349;19;19926;-71
2023/10/28 09:05:22;;;;;;;6.05;2.65;;;;;;;11.12;100.00;99758.81;7392451;19;19931;-71
2023/10/28 09:07:51;;;;;;;6.20;2.90;;;;;;;11.15;100.00;99755.69;7390885;19;19939;-71
2023/10/28 09:10:21;;;;;;;5.57;2.83;;;;;;;11.16;100.00;99757.34;7382967;19;19951;-70
2023/10/28 09:12:52;;;;;;;5.10;2.72;;;;;;;11.15;100.00;99764.59;7382591;19;19922;-70
2023/10/28 09:15:21;;;;;;;4.88;2.63;;;;;;;11.15;100.00;99763.78;7381175;19;19918;-70
2023/10/28 09:17:50;;;;;;;5.47;2.90;;;;;;;11.15;100.00;99766.47;7377263;19;19974;-70
2023/10/28 09:20:18;;;;;;;5.20;2.47;;;;;;;11.14;100.00;99768.34;7371807;19;19940;-70
2023/10/28 09:22:48;;;;;;;4.35;2.35;;;;;;;11.14;100.00;99768.34;7377841;19;19927;-70
2023/10/28 09:25:17;;;;;;;8.90;2.50;;;;;;;11.14;100.00;99767.50;7380938;19;19923;-71
2023/10/28 09:27:46;;;;;;;4.43;2.85;;;;;;;11.11;100.00;99774.16;7378792;19;19925;-71
2023/10/28 09:30:21;;;;;;;4.45;2.45;;;;;;;11.14;100.00;99767.50;7372400;19;19929;-71
2023/10/28 09:32:50;;;;;;;4.63;2.17;;;;;;;11.20;100.00;99761.28;7384461;19;19922;-70
2023/10/28 09:35:18;;;;;;;6.65;2.50;;;;;;;11.29;100.00;99760.88;7378828;19;20265;-70
2023/10/28 09:37:47;;;;;;;5.57;2.72;;;;;;;11.42;100.00;99762.72;7378551;19;19976;-70
2023/10/28 09:40:17;;;;;;;6.53;2.50;;;;;;;11.50;100.00;99758.97;7386215;19;19922;-70
2023/10/28 09:42:46;;;;;;;6.85;2.08;;;;;;;11.57;100.00;99754.38;7396332;19;19915;-70
2023/10/28 09:45:18;;;;;;;7.57;2.80;;;;;;;11.61;100.00;99766.41;7387299;19;19919;-71
2023/10/28 09:47:52;;;;;;;5.22;2.22;;;;;;;11.65;100.00;99764.97;7378216;19;19923;-71
2023/10/28 09:50:25;;;;;;;5.32;2.60;;;;;;;11.66;100.00;99769.31;7389700;19;20348;-71
2023/10/28 09:52:56;;;;;;;3.97;2.00;;;;;;;11.69;100.00;99769.72;7398378;19;19926;-70
2023/10/28 09:55:28;;;;;;;4.97;2.38;;;;;;;11.70;100.00;99768.69;7395678;19;19931;-70
2023/10/28 09:58:05;;;;;;;3.03;1.95;;;;;;;11.70;100.00;99768.69;7377036;19;19926;-70
2023/10/28 10:00:37;;;;;;;5.25;2.50;;;;;;;11.67;99.46;99762.88;7387740;19;20305;-70
2023/10/28 10:03:22;;;;;;;6.78;2.20;;;;;;;11.65;100.00;99767.69;7391254;19;20402;-70
2023/10/28 10:05:53;;;;;;;5.22;2.47;;;;;;;11.65;100.00;99764.97;7379526;19;19926;-71
2023/10/28 10:08:22;;;;;;;4.50;2.40;;;;;;;11.63;100.00;99767.88;7385574;19;19929;-71
2023/10/28 10:10:51;;;;;;;5.50;2.58;;;;;;;11.61;100.00;99769.94;7375735;19;19930;-71
2023/10/28 10:13:21;;;;;;;4.68;2.15;;;;;;;11.59;99.93;99771.22;7376716;19;20401;-70
2023/10/28 10:16:03;;;;;;;5.35;2.03;;;;;;;11.59;99.36;99774.75;7388011;19;20353;-70
2023/10/28 10:18:34;;;;;;;5.70;2.47;;;;;;;11.62;100.00;99779.69;7393068;19;19926;-71
2023/10/28 10:21:07;;;;;;;4.55;2.35;;;;;;;11.63;99.84;99778.66;7398043;19;19959;-71
2023/10/28 10:23:44;;;;;;;4.75;2.33;;;;;;;11.59;99.45;99771.22;7391151;19;19923;-71
2023/10/28 10:26:23;;;;;;;4.80;1.90;;;;;;;11.58;99.60;99774.94;7371423;19;20236;-70
2023/10/28 10:28:55;;;;;;;4.18;1.83;;;;;;;11.60;99.73;99789.06;7394206;19;19929;-69
2023/10/28 10:31:32;;;;;;;4.13;2.15;;;;;;;11.59;100.00;99784.69;7392823;19;19964;-72
2023/10/28 10:34:03;;;;;;;5.53;2.30;;;;;;;11.60;100.00;99771.00;7391558;19;19919;-72
2023/10/28 10:36:35;;;;;;;8.20;2.33;;;;;;;11.63;100.00;99775.97;7393707;19;19928;-72
2023/10/28 10:39:18;;;;;;;5.22;2.00;;;;;;;11.56;100.00;99777.84;7397917;19;19919;-72
2023/10/28 10:41:51;;;;;;;5.90;2.25;;;;;;;11.57;100.00;99778.66;7396209;19;20659;-72
2023/10/28 10:44:26;;;;;;;5.50;2.65;;;;;;;11.58;100.00;99777.63;7395829;19;20447;-71
2023/10/28 10:47:00;;;;;;;5.82;2.53;;;;;;;11.56;100.00;99774.34;7395830;19;19914;-71
2023/10/28 10:49:30;;;;;;;5.07;2.22;;;;;;;11.54;100.00;99769.13;7393385;19;19930;-70
2023/10/28 10:52:00;;;;;;;7.72;2.85;;;;;;;11.54;100.00;99777.22;7392211;19;20320;-70
2023/10/28 10:54:33;;;;;;;4.03;2.53;;;;;;;11.54;100.00;99777.22;7386537;19;20042;-70
2023/10/28 10:57:02;;;;;;;7.35;2.38;;;;;;;11.58;100.00;99767.69;7393701;19;20295;-72
2023/10/28 10:59:32;;;;;;;4.60;2.50;;;;;;;11.62;100.00;99768.91;7360662;19;19959;-70
2023/10/28 11:02:03;;;;;;;5.95;3.03;;;;;;;11.62;100.00;99768.91;7373070;19;19930;-71
2023/10/28 11:04:34;;;;;;;6.75;3.28;;;;;;;11.66;100.00;99772.84;7377899;19;19927;-70
2023/10/28 11:07:04;;;;;;;6.97;2.55;;;;;;;11.69;100.00;99761.63;7371459;19;19914;-71
2023/10/28 11:09:34;;;;;;;4.93;2.53;;;;;;;11.74;100.00;99767.25;7381302;19;19910;-70
2023/10/28 11:12:02;;;;;;;5.72;2.65;;;;;;;11.74;100.00;99780.75;7372814;19;19922;-71
2023/10/28 11:14:31;;;;;;;6.93;2.85;;;;;;;11.74;100.00;99771.81;7371550;19;19930;-71
2023/10/28 11:17:02;;;;;;;5.95;2.80;;;;;;;11.74;100.00;99764.56;7390207;19;19978;-70
2023/10/28 11:19:31;;;;;;;5.43;2.80;;;;;;;11.75;100.00;99765.38;7392778;19;19914;-70
2023/10/28 11:22:00;;;;;;;3.35;2.60;;;;;;;11.73;100.00;99771.00;7377583;19;20774;-70
2023/10/28 11:24:28;;;;;;;6.72;2.67;;;;;;;11.72;100.00;99766.66;7376092;19;19926;-71
2023/10/28 11:26:59;;;;;;;5.25;2.70;;;;;;;11.73;100.00;99765.63;7395305;19;19944;-71
2023/10/28 11:29:28;;;;;;;6.53;3.33;;;;;;;11.79;100.00;99767.44;7395191;19;19929;-72
2023/10/28 11:31:57;;;;;;;5.80;3.20;;;;;;;11.91;100.00;99766.81;7394086;19;19928;-71
2023/10/28 11:34:29;;;;;;;8.32;3.55;;;;;;;11.93;100.00;99767.41;7393173;19;19923;-72